sensor_id;sensor_type;location;lat;lon;timestamp;pressure;altitude;pressure_sealevel;temperature
12918;BMP180;6526;54.312;13.092;2023-08-01T00:02:11;100256.00;;;20.40
12918;BMP180;6526;54.312;13.092;2023-08-01T00:04:37;100243.00;;;20.40
12918;BMP180;6526;54.312;13.092;2023-08-01T00:07:03;100239.00;;;20.40
12918;BMP180;6526;54.312;13.092;2023-08-01T00:09:29;100245.00;;;20.40
12918;BMP180;6526;54.312;13.092;2023-08-01T00:11:55;100231.00;;;20.40
12918;BMP180;6526;54.312;13.092;2023-08-01T00:14:21;100225.00;;;20.40
12918;BMP180;6526;54.312;13.092;2023-08-01T00:16:50;100228.00;;;20.20
12918;BMP180;6526;54.312;13.092;2023-08-01T00:19:17;100218.00;;;20.40
12918;BMP180;6526;54.312;13.092;2023-08-01T00:21:43;100202.00;;;20.40
12918;BMP180;6526;54.312;13.092;2023-08-01T00:24:09;100201.00;;;20.40
12918;BMP180;6526;54.312;13.092;2023-08-01T00:26:35;100192.00;;;20.30
12918;BMP180;6526;54.312;13.092;2023-08-01T00:29:01;100188.00;;;20.30
12918;BMP180;6526;54.312;13.092;2023-08-01T00:31:27;100175.00;;;20.30
12918;BMP180;6526;54.312;13.092;2023-08-01T00:33:54;100176.00;;;20.30
12918;BMP180;6526;54.312;13.092;2023-08-01T00:36:20;100167.00;;;20.40
12918;BMP180;6526;54.312;13.092;2023-08-01T00:38:46;100163.00;;;20.30
12918;BMP180;6526;54.312;13.092;2023-08-01T00:41:12;100159.00;;;20.30
12918;BMP180;6526;54.312;13.092;2023-08-01T00:43:38;100158.00;;;20.30
12918;BMP180;6526;54.312;13.092;2023-08-01T00:46:06;100144.00;;;20.30
12918;BMP180;6526;54.312;13.092;2023-08-01T00:48:34;100145.00;;;20.20
12918;BMP180;6526;54.312;13.092;2023-08-01T00:51:03;100143.00;;;20.30
12918;BMP180;6526;54.312;13.092;2023-08-01T00:53:30;100140.00;;;20.30
12918;BMP180;6526;54.312;13.092;2023-08-01T00:56:00;100130.00;;;20.30
12918;BMP180;6526;54.312;13.092;2023-08-01T00:58:26;100121.00;;;20.30
12918;BMP180;6526;54.312;13.092;2023-08-01T01:00:52;100116.00;;;20.20
12918;BMP180;6526;54.312;13.092;2023-08-01T01:03:19;100118.00;;;20.20
12918;BMP180;6526;54.312;13.092;2023-08-01T01:05:53;100107.00;;;20.20
12918;BMP180;6526;54.312;13.092;2023-08-01T01:08:22;100106.00;;;20.20
12918;BMP180;6526;54.312;13.092;2023-08-01T01:10:48;100101.00;;;20.20
12918;BMP180;6526;54.312;13.092;2023-08-01T01:13:14;100091.00;;;20.20
12918;BMP180;6526;54.312;13.092;2023-08-01T01:15:40;100076.00;;;20.20
12918;BMP180;6526;54.312;13.092;2023-08-01T01:18:06;100078.00;;;20.20
12918;BMP180;6526;54.312;13.092;2023-08-01T01:20:36;100063.00;;;20.20
12918;BMP180;6526;54.312;13.092;2023-08-01T01:23:04;100062.00;;;20.10
12918;BMP180;6526;54.312;13.092;2023-08-01T01:25:31;100060.00;;;20.10
12918;BMP180;6526;54.312;13.092;2023-08-01T01:27:59;100070.00;;;20.20
12918;BMP180;6526;54.312;13.092;2023-08-01T01:30:26;100057.00;;;20.10
12918;BMP180;6526;54.312;13.092;2023-08-01T01:32:53;100044.00;;;20.10
12918;BMP180;6526;54.312;13.092;2023-08-01T01:35:19;100033.00;;;20.10
12918;BMP180;6526;54.312;13.092;2023-08-01T01:37:45;100019.00;;;20.10
12918;BMP180;6526;54.312;13.092;2023-08-01T01:40:11;100016.00;;;20.00
12918;BMP180;6526;54.312;13.092;2023-08-01T01:42:37;100015.00;;;20.00
12918;BMP180;6526;54.312;13.092;2023-08-01T01:45:04;100018.00;;;20.00
12918;BMP180;6526;54.312;13.092;2023-08-01T01:47:30;100008.00;;;20.00
12918;BMP180;6526;54.312;13.092;2023-08-01T01:49:56;99997.00;;;19.90
12918;BMP180;6526;54.312;13.092;2023-08-01T01:52:22;99994.00;;;20.00
12918;BMP180;6526;54.312;13.092;2023-08-01T01:54:48;99995.00;;;20.00
12918;BMP180;6526;54.312;13.092;2023-08-01T01:57:14;99991.00;;;19.90
12918;BMP180;6526;54.312;13.092;2023-08-01T01:59:40;99994.00;;;19.90
12918;BMP180;6526;54.312;13.092;2023-08-01T02:02:06;99988.00;;;19.90
12918;BMP180;6526;54.312;13.092;2023-08-01T02:04:32;99984.00;;;20.00
12918;BMP180;6526;54.312;13.092;2023-08-01T02:06:58;99986.00;;;20.00
12918;BMP180;6526;54.312;13.092;2023-08-01T02:09:24;99973.00;;;20.00
12918;BMP180;6526;54.312;13.092;2023-08-01T02:11:50;99971.00;;;20.10
12918;BMP180;6526;54.312;13.092;2023-08-01T02:14:16;99966.00;;;20.10
12918;BMP180;6526;54.312;13.092;2023-08-01T02:16:42;99963.00;;;20.10
12918;BMP180;6526;54.312;13.092;2023-08-01T02:19:09;99952.00;;;20.10
12918;BMP180;6526;54.312;13.092;2023-08-01T02:21:35;99943.00;;;20.10
12918;BMP180;6526;54.312;13.092;2023-08-01T02:24:00;99949.00;;;20.20
12918;BMP180;6526;54.312;13.092;2023-08-01T02:26:27;99945.00;;;20.20
12918;BMP180;6526;54.312;13.092;2023-08-01T02:28:54;99944.00;;;20.20
12918;BMP180;6526;54.312;13.092;2023-08-01T02:31:20;99940.00;;;20.20
12918;BMP180;6526;54.312;13.092;2023-08-01T02:33:46;99939.00;;;20.20
12918;BMP180;6526;54.312;13.092;2023-08-01T02:36:12;99941.00;;;20.20
12918;BMP180;6526;54.312;13.092;2023-08-01T02:38:38;99928.00;;;20.10
12918;BMP180;6526;54.312;13.092;2023-08-01T02:41:04;99935.00;;;20.10
12918;BMP180;6526;54.312;13.092;2023-08-01T02:43:30;99937.00;;;20.10
12918;BMP180;6526;54.312;13.092;2023-08-01T02:45:56;99932.00;;;20.10
12918;BMP180;6526;54.312;13.092;2023-08-01T02:48:23;99933.00;;;20.10
12918;BMP180;6526;54.312;13.092;2023-08-01T02:50:49;99925.00;;;20.10
12918;BMP180;6526;54.312;13.092;2023-08-01T02:53:14;99929.00;;;20.10
12918;BMP180;6526;54.312;13.092;2023-08-01T02:55:40;99926.00;;;20.10
12918;BMP180;6526;54.312;13.092;2023-08-01T02:58:06;99915.00;;;20.10
12918;BMP180;6526;54.312;13.092;2023-08-01T03:00:32;99920.00;;;20.10
12918;BMP180;6526;54.312;13.092;2023-08-01T03:02:58;99926.00;;;20.10
12918;BMP180;6526;54.312;13.092;2023-08-01T03:05:24;99915.00;;;20.10
12918;BMP180;6526;54.312;13.092;2023-08-01T03:07:50;99911.00;;;20.00
12918;BMP180;6526;54.312;13.092;2023-08-01T03:10:16;99910.00;;;20.00
12918;BMP180;6526;54.312;13.092;2023-08-01T03:12:42;99902.00;;;20.00
12918;BMP180;6526;54.312;13.092;2023-08-01T03:15:09;99916.00;;;19.90
12918;BMP180;6526;54.312;13.092;2023-08-01T03:17:35;99904.00;;;20.00
12918;BMP180;6526;54.312;13.092;2023-08-01T03:20:01;99903.00;;;20.00
12918;BMP180;6526;54.312;13.092;2023-08-01T03:22:27;99893.00;;;20.00
12918;BMP180;6526;54.312;13.092;2023-08-01T03:24:53;99901.00;;;20.00
12918;BMP180;6526;54.312;13.092;2023-08-01T03:27:19;99886.00;;;20.00
12918;BMP180;6526;54.312;13.092;2023-08-01T03:29:45;99880.00;;;20.00
12918;BMP180;6526;54.312;13.092;2023-08-01T03:32:11;99880.00;;;20.00
12918;BMP180;6526;54.312;13.092;2023-08-01T03:34:37;99866.00;;;20.00
12918;BMP180;6526;54.312;13.092;2023-08-01T03:37:05;99866.00;;;20.10
12918;BMP180;6526;54.312;13.092;2023-08-01T03:39:31;99857.00;;;20.10
12918;BMP180;6526;54.312;13.092;2023-08-01T03:41:57;99865.00;;;20.10
12918;BMP180;6526;54.312;13.092;2023-08-01T03:44:23;99865.00;;;20.10
12918;BMP180;6526;54.312;13.092;2023-08-01T03:46:49;99868.00;;;20.10
12918;BMP180;6526;54.312;13.092;2023-08-01T03:49:15;99871.00;;;20.10
12918;BMP180;6526;54.312;13.092;2023-08-01T03:51:41;99870.00;;;20.10
12918;BMP180;6526;54.312;13.092;2023-08-01T03:54:07;99870.00;;;20.10
12918;BMP180;6526;54.312;13.092;2023-08-01T03:56:33;99869.00;;;20.10
12918;BMP180;6526;54.312;13.092;2023-08-01T03:58:59;99861.00;;;20.00
12918;BMP180;6526;54.312;13.092;2023-08-01T04:01:25;99852.00;;;20.00
12918;BMP180;6526;54.312;13.092;2023-08-01T04:03:51;99859.00;;;20.00
12918;BMP180;6526;54.312;13.092;2023-08-01T04:06:17;99857.00;;;20.00
12918;BMP180;6526;54.312;13.092;2023-08-01T04:08:44;99854.00;;;20.00
12918;BMP180;6526;54.312;13.092;2023-08-01T04:11:10;99846.00;;;20.00
12918;BMP180;6526;54.312;13.092;2023-08-01T04:13:37;99839.00;;;20.00
12918;BMP180;6526;54.312;13.092;2023-08-01T04:16:03;99833.00;;;20.00
12918;BMP180;6526;54.312;13.092;2023-08-01T04:18:29;99842.00;;;20.10
12918;BMP180;6526;54.312;13.092;2023-08-01T04:20:55;99831.00;;;20.10
12918;BMP180;6526;54.312;13.092;2023-08-01T04:23:21;99830.00;;;20.00
12918;BMP180;6526;54.312;13.092;2023-08-01T04:25:47;99826.00;;;20.00
12918;BMP180;6526;54.312;13.092;2023-08-01T04:28:13;99827.00;;;20.00
12918;BMP180;6526;54.312;13.092;2023-08-01T04:30:39;99824.00;;;20.00
12918;BMP180;6526;54.312;13.092;2023-08-01T04:33:05;99817.00;;;20.00
12918;BMP180;6526;54.312;13.092;2023-08-01T04:35:31;99822.00;;;20.00
12918;BMP180;6526;54.312;13.092;2023-08-01T04:37:57;99826.00;;;20.00
12918;BMP180;6526;54.312;13.092;2023-08-01T04:40:23;99819.00;;;20.00
12918;BMP180;6526;54.312;13.092;2023-08-01T04:42:49;99824.00;;;20.00
12918;BMP180;6526;54.312;13.092;2023-08-01T04:45:15;99820.00;;;20.00
12918;BMP180;6526;54.312;13.092;2023-08-01T04:47:41;99817.00;;;20.10
12918;BMP180;6526;54.312;13.092;2023-08-01T04:50:07;99818.00;;;20.10
12918;BMP180;6526;54.312;13.092;2023-08-01T04:52:33;99800.00;;;20.10
12918;BMP180;6526;54.312;13.092;2023-08-01T04:54:59;99807.00;;;20.10
12918;BMP180;6526;54.312;13.092;2023-08-01T04:57:25;99801.00;;;20.10
12918;BMP180;6526;54.312;13.092;2023-08-01T04:59:51;99807.00;;;20.10
12918;BMP180;6526;54.312;13.092;2023-08-01T05:02:17;99818.00;;;20.10
12918;BMP180;6526;54.312;13.092;2023-08-01T05:04:43;99826.00;;;20.10
12918;BMP180;6526;54.312;13.092;2023-08-01T05:07:09;99813.00;;;20.10
12918;BMP180;6526;54.312;13.092;2023-08-01T05:09:35;99823.00;;;20.10
12918;BMP180;6526;54.312;13.092;2023-08-01T05:12:01;99826.00;;;20.10
12918;BMP180;6526;54.312;13.092;2023-08-01T05:14:27;99823.00;;;20.20
12918;BMP180;6526;54.312;13.092;2023-08-01T05:16:53;99817.00;;;20.20
12918;BMP180;6526;54.312;13.092;2023-08-01T05:19:19;99806.00;;;20.20
12918;BMP180;6526;54.312;13.092;2023-08-01T05:21:45;99802.00;;;20.20
12918;BMP180;6526;54.312;13.092;2023-08-01T05:24:12;99802.00;;;20.20
12918;BMP180;6526;54.312;13.092;2023-08-01T05:26:38;99810.00;;;20.20
12918;BMP180;6526;54.312;13.092;2023-08-01T05:29:04;99804.00;;;20.20
12918;BMP180;6526;54.312;13.092;2023-08-01T05:31:30;99811.00;;;20.30
12918;BMP180;6526;54.312;13.092;2023-08-01T05:33:56;99819.00;;;20.30
12918;BMP180;6526;54.312;13.092;2023-08-01T05:36:22;99808.00;;;20.40
12918;BMP180;6526;54.312;13.092;2023-08-01T05:38:48;99827.00;;;20.40
12918;BMP180;6526;54.312;13.092;2023-08-01T05:41:14;99825.00;;;20.40
12918;BMP180;6526;54.312;13.092;2023-08-01T05:43:40;99812.00;;;20.40
12918;BMP180;6526;54.312;13.092;2023-08-01T05:46:06;99822.00;;;20.40
12918;BMP180;6526;54.312;13.092;2023-08-01T05:48:32;99811.00;;;20.40
12918;BMP180;6526;54.312;13.092;2023-08-01T05:50:58;99809.00;;;20.40
12918;BMP180;6526;54.312;13.092;2023-08-01T05:53:25;99806.00;;;20.40
12918;BMP180;6526;54.312;13.092;2023-08-01T05:55:51;99817.00;;;20.50
12918;BMP180;6526;54.312;13.092;2023-08-01T05:58:17;99824.00;;;20.50
12918;BMP180;6526;54.312;13.092;2023-08-01T06:00:43;99811.00;;;20.50
12918;BMP180;6526;54.312;13.092;2023-08-01T06:03:09;99832.00;;;20.50
12918;BMP180;6526;54.312;13.092;2023-08-01T06:05:36;99822.00;;;20.50
12918;BMP180;6526;54.312;13.092;2023-08-01T06:08:05;99804.00;;;20.50
12918;BMP180;6526;54.312;13.092;2023-08-01T06:10:31;99819.00;;;20.50
12918;BMP180;6526;54.312;13.092;2023-08-01T06:12:57;99803.00;;;20.50
12918;BMP180;6526;54.312;13.092;2023-08-01T06:15:23;99812.00;;;20.50
12918;BMP180;6526;54.312;13.092;2023-08-01T06:17:49;99813.00;;;20.50
12918;BMP180;6526;54.312;13.092;2023-08-01T06:20:15;99810.00;;;20.50
12918;BMP180;6526;54.312;13.092;2023-08-01T06:22:42;99813.00;;;20.50
12918;BMP180;6526;54.312;13.092;2023-08-01T06:25:08;99820.00;;;20.50
12918;BMP180;6526;54.312;13.092;2023-08-01T06:27:34;99824.00;;;20.60
12918;BMP180;6526;54.312;13.092;2023-08-01T06:30:00;99809.00;;;20.50
12918;BMP180;6526;54.312;13.092;2023-08-01T06:32:26;99823.00;;;20.60
12918;BMP180;6526;54.312;13.092;2023-08-01T06:34:52;99813.00;;;20.60
12918;BMP180;6526;54.312;13.092;2023-08-01T06:37:18;99820.00;;;20.60
12918;BMP180;6526;54.312;13.092;2023-08-01T06:39:44;99818.00;;;20.60
12918;BMP180;6526;54.312;13.092;2023-08-01T06:42:11;99813.00;;;20.60
12918;BMP180;6526;54.312;13.092;2023-08-01T06:44:37;99819.00;;;20.60
12918;BMP180;6526;54.312;13.092;2023-08-01T06:47:03;99812.00;;;20.60
12918;BMP180;6526;54.312;13.092;2023-08-01T06:49:29;99810.00;;;20.60
12918;BMP180;6526;54.312;13.092;2023-08-01T06:51:55;99805.00;;;20.40
12918;BMP180;6526;54.312;13.092;2023-08-01T06:54:21;99807.00;;;20.60
12918;BMP180;6526;54.312;13.092;2023-08-01T06:56:47;99807.00;;;20.60
12918;BMP180;6526;54.312;13.092;2023-08-01T06:59:14;99807.00;;;20.70
12918;BMP180;6526;54.312;13.092;2023-08-01T07:01:41;99819.00;;;20.70
12918;BMP180;6526;54.312;13.092;2023-08-01T07:04:09;99813.00;;;20.70
12918;BMP180;6526;54.312;13.092;2023-08-01T07:06:35;99813.00;;;20.80
12918;BMP180;6526;54.312;13.092;2023-08-01T07:09:02;99802.00;;;20.90
12918;BMP180;6526;54.312;13.092;2023-08-01T07:11:28;99802.00;;;20.90
12918;BMP180;6526;54.312;13.092;2023-08-01T07:13:54;99801.00;;;20.90
12918;BMP180;6526;54.312;13.092;2023-08-01T07:16:20;99810.00;;;21.00
12918;BMP180;6526;54.312;13.092;2023-08-01T07:18:46;99820.00;;;21.00
12918;BMP180;6526;54.312;13.092;2023-08-01T07:21:14;99806.00;;;21.00
12918;BMP180;6526;54.312;13.092;2023-08-01T07:23:40;99818.00;;;21.00
12918;BMP180;6526;54.312;13.092;2023-08-01T07:26:06;99821.00;;;21.00
12918;BMP180;6526;54.312;13.092;2023-08-01T07:28:32;99820.00;;;20.90
12918;BMP180;6526;54.312;13.092;2023-08-01T07:31:03;99830.00;;;21.00
12918;BMP180;6526;54.312;13.092;2023-08-01T07:33:31;99823.00;;;21.00
12918;BMP180;6526;54.312;13.092;2023-08-01T07:35:58;99817.00;;;21.00
12918;BMP180;6526;54.312;13.092;2023-08-01T07:38:24;99826.00;;;21.00
12918;BMP180;6526;54.312;13.092;2023-08-01T07:40:51;99820.00;;;21.10
12918;BMP180;6526;54.312;13.092;2023-08-01T07:43:17;99826.00;;;21.10
12918;BMP180;6526;54.312;13.092;2023-08-01T07:45:45;99819.00;;;21.10
12918;BMP180;6526;54.312;13.092;2023-08-01T07:48:11;99812.00;;;21.10
12918;BMP180;6526;54.312;13.092;2023-08-01T07:50:37;99808.00;;;21.20
12918;BMP180;6526;54.312;13.092;2023-08-01T07:53:03;99812.00;;;21.20
12918;BMP180;6526;54.312;13.092;2023-08-01T07:55:32;99812.00;;;21.20
12918;BMP180;6526;54.312;13.092;2023-08-01T07:57:59;99812.00;;;21.20
12918;BMP180;6526;54.312;13.092;2023-08-01T08:00:25;99825.00;;;21.20
12918;BMP180;6526;54.312;13.092;2023-08-01T08:02:51;99811.00;;;21.20
12918;BMP180;6526;54.312;13.092;2023-08-01T08:05:17;99804.00;;;21.20
12918;BMP180;6526;54.312;13.092;2023-08-01T08:07:43;99808.00;;;21.30
12918;BMP180;6526;54.312;13.092;2023-08-01T08:10:09;99819.00;;;21.30
12918;BMP180;6526;54.312;13.092;2023-08-01T08:12:35;99808.00;;;21.30
12918;BMP180;6526;54.312;13.092;2023-08-01T08:15:01;99822.00;;;21.30
12918;BMP180;6526;54.312;13.092;2023-08-01T08:17:27;99807.00;;;21.20
12918;BMP180;6526;54.312;13.092;2023-08-01T08:19:53;99819.00;;;21.20
12918;BMP180;6526;54.312;13.092;2023-08-01T08:22:19;99809.00;;;21.20
12918;BMP180;6526;54.312;13.092;2023-08-01T08:24:45;99798.00;;;21.20
12918;BMP180;6526;54.312;13.092;2023-08-01T08:27:11;99804.00;;;21.20
12918;BMP180;6526;54.312;13.092;2023-08-01T08:29:37;99798.00;;;21.20
12918;BMP180;6526;54.312;13.092;2023-08-01T08:32:03;99790.00;;;21.20
12918;BMP180;6526;54.312;13.092;2023-08-01T08:34:29;99796.00;;;21.10
12918;BMP180;6526;54.312;13.092;2023-08-01T08:36:55;99797.00;;;21.40
12918;BMP180;6526;54.312;13.092;2023-08-01T08:39:21;99798.00;;;21.40
12918;BMP180;6526;54.312;13.092;2023-08-01T08:41:50;99791.00;;;21.50
12918;BMP180;6526;54.312;13.092;2023-08-01T08:44:18;99788.00;;;21.70
12918;BMP180;6526;54.312;13.092;2023-08-01T08:46:52;99799.00;;;21.70
12918;BMP180;6526;54.312;13.092;2023-08-01T08:49:19;99795.00;;;21.70
12918;BMP180;6526;54.312;13.092;2023-08-01T08:51:47;99799.00;;;21.80
12918;BMP180;6526;54.312;13.092;2023-08-01T08:54:14;99792.00;;;21.80
12918;BMP180;6526;54.312;13.092;2023-08-01T08:56:41;99790.00;;;21.90
12918;BMP180;6526;54.312;13.092;2023-08-01T08:59:10;99794.00;;;21.90
12918;BMP180;6526;54.312;13.092;2023-08-01T09:01:37;99788.00;;;21.90
12918;BMP180;6526;54.312;13.092;2023-08-01T09:04:04;99790.00;;;22.00
12918;BMP180;6526;54.312;13.092;2023-08-01T09:06:37;99798.00;;;22.00
12918;BMP180;6526;54.312;13.092;2023-08-01T09:09:13;99800.00;;;22.10
12918;BMP180;6526;54.312;13.092;2023-08-01T09:11:50;99796.00;;;22.20
12918;BMP180;6526;54.312;13.092;2023-08-01T09:14:17;99796.00;;;22.20
12918;BMP180;6526;54.312;13.092;2023-08-01T09:16:44;99798.00;;;22.20
12918;BMP180;6526;54.312;13.092;2023-08-01T09:19:10;99788.00;;;22.10
12918;BMP180;6526;54.312;13.092;2023-08-01T09:21:39;99792.00;;;22.00
12918;BMP180;6526;54.312;13.092;2023-08-01T09:24:15;99788.00;;;22.10
12918;BMP180;6526;54.312;13.092;2023-08-01T09:26:42;99792.00;;;22.10
12918;BMP180;6526;54.312;13.092;2023-08-01T09:29:09;99788.00;;;22.20
12918;BMP180;6526;54.312;13.092;2023-08-01T09:31:37;99787.00;;;22.30
12918;BMP180;6526;54.312;13.092;2023-08-01T09:34:04;99794.00;;;22.40
12918;BMP180;6526;54.312;13.092;2023-08-01T09:36:34;99787.00;;;22.40
12918;BMP180;6526;54.312;13.092;2023-08-01T09:39:02;99782.00;;;22.40
12918;BMP180;6526;54.312;13.092;2023-08-01T09:41:30;99788.00;;;22.40
12918;BMP180;6526;54.312;13.092;2023-08-01T09:43:56;99784.00;;;22.40
12918;BMP180;6526;54.312;13.092;2023-08-01T09:46:23;99784.00;;;22.40
12918;BMP180;6526;54.312;13.092;2023-08-01T09:48:49;99785.00;;;22.40
12918;BMP180;6526;54.312;13.092;2023-08-01T09:51:17;99786.00;;;22.50
12918;BMP180;6526;54.312;13.092;2023-08-01T09:53:54;99785.00;;;22.50
12918;BMP180;6526;54.312;13.092;2023-08-01T09:56:23;99782.00;;;22.40
12918;BMP180;6526;54.312;13.092;2023-08-01T09:58:50;99784.00;;;22.40
12918;BMP180;6526;54.312;13.092;2023-08-01T10:01:19;99790.00;;;22.40
12918;BMP180;6526;54.312;13.092;2023-08-01T10:03:49;99796.00;;;22.40
12918;BMP180;6526;54.312;13.092;2023-08-01T10:06:21;99802.00;;;22.40
12918;BMP180;6526;54.312;13.092;2023-08-01T10:08:47;99801.00;;;22.40
12918;BMP180;6526;54.312;13.092;2023-08-01T10:11:21;99799.00;;;22.40
12918;BMP180;6526;54.312;13.092;2023-08-01T10:13:48;99791.00;;;22.40
12918;BMP180;6526;54.312;13.092;2023-08-01T10:16:14;99786.00;;;22.40
12918;BMP180;6526;54.312;13.092;2023-08-01T10:18:42;99792.00;;;22.40
12918;BMP180;6526;54.312;13.092;2023-08-01T10:21:13;99792.00;;;22.40
12918;BMP180;6526;54.312;13.092;2023-08-01T10:23:41;99788.00;;;22.30
12918;BMP180;6526;54.312;13.092;2023-08-01T10:26:09;99788.00;;;22.20
12918;BMP180;6526;54.312;13.092;2023-08-01T10:28:38;99787.00;;;22.20
12918;BMP180;6526;54.312;13.092;2023-08-01T10:31:15;99784.00;;;22.20
12918;BMP180;6526;54.312;13.092;2023-08-01T10:33:43;99782.00;;;22.20
12918;BMP180;6526;54.312;13.092;2023-08-01T10:36:21;99775.00;;;22.30
12918;BMP180;6526;54.312;13.092;2023-08-01T10:38:54;99772.00;;;22.40
12918;BMP180;6526;54.312;13.092;2023-08-01T10:41:26;99780.00;;;22.40
12918;BMP180;6526;54.312;13.092;2023-08-01T10:44:11;99776.00;;;22.40
12918;BMP180;6526;54.312;13.092;2023-08-01T10:46:55;99781.00;;;22.40
12918;BMP180;6526;54.312;13.092;2023-08-01T10:49:36;99775.00;;;22.50
12918;BMP180;6526;54.312;13.092;2023-08-01T10:52:04;99787.00;;;22.50
12918;BMP180;6526;54.312;13.092;2023-08-01T10:54:40;99786.00;;;22.50
12918;BMP180;6526;54.312;13.092;2023-08-01T10:57:06;99787.00;;;22.40
12918;BMP180;6526;54.312;13.092;2023-08-01T10:59:34;99784.00;;;22.30
12918;BMP180;6526;54.312;13.092;2023-08-01T11:02:01;99790.00;;;22.30
12918;BMP180;6526;54.312;13.092;2023-08-01T11:04:27;99801.00;;;22.20
12918;BMP180;6526;54.312;13.092;2023-08-01T11:06:54;99803.00;;;22.10
12918;BMP180;6526;54.312;13.092;2023-08-01T11:09:25;99784.00;;;22.00
12918;BMP180;6526;54.312;13.092;2023-08-01T11:11:56;99781.00;;;21.90
12918;BMP180;6526;54.312;13.092;2023-08-01T11:14:25;99784.00;;;21.90
12918;BMP180;6526;54.312;13.092;2023-08-01T11:16:53;99793.00;;;21.90
12918;BMP180;6526;54.312;13.092;2023-08-01T11:19:24;99793.00;;;21.90
12918;BMP180;6526;54.312;13.092;2023-08-01T11:21:51;99793.00;;;21.90
12918;BMP180;6526;54.312;13.092;2023-08-01T11:24:19;99788.00;;;21.90
12918;BMP180;6526;54.312;13.092;2023-08-01T11:26:47;99780.00;;;21.90
12918;BMP180;6526;54.312;13.092;2023-08-01T11:29:14;99783.00;;;22.00
12918;BMP180;6526;54.312;13.092;2023-08-01T11:31:41;99787.00;;;22.20
12918;BMP180;6526;54.312;13.092;2023-08-01T11:34:18;99784.00;;;22.40
12918;BMP180;6526;54.312;13.092;2023-08-01T11:36:44;99776.00;;;22.40
12918;BMP180;6526;54.312;13.092;2023-08-01T11:39:12;99773.00;;;22.40
12918;BMP180;6526;54.312;13.092;2023-08-01T11:41:38;99781.00;;;22.50
12918;BMP180;6526;54.312;13.092;2023-08-01T11:44:05;99775.00;;;22.40
12918;BMP180;6526;54.312;13.092;2023-08-01T11:46:33;99770.00;;;22.60
12918;BMP180;6526;54.312;13.092;2023-08-01T11:48:59;99771.00;;;22.70
12918;BMP180;6526;54.312;13.092;2023-08-01T11:51:27;99762.00;;;22.70
12918;BMP180;6526;54.312;13.092;2023-08-01T11:54:03;99761.00;;;22.70
12918;BMP180;6526;54.312;13.092;2023-08-01T11:56:30;99769.00;;;22.80
12918;BMP180;6526;54.312;13.092;2023-08-01T11:58:56;99763.00;;;22.80
12918;BMP180;6526;54.312;13.092;2023-08-01T12:01:23;99778.00;;;22.90
12918;BMP180;6526;54.312;13.092;2023-08-01T12:03:49;99775.00;;;23.00
12918;BMP180;6526;54.312;13.092;2023-08-01T12:06:17;99784.00;;;23.10
12918;BMP180;6526;54.312;13.092;2023-08-01T12:08:44;99790.00;;;23.10
12918;BMP180;6526;54.312;13.092;2023-08-01T12:11:24;99791.00;;;23.20
12918;BMP180;6526;54.312;13.092;2023-08-01T12:14:12;99788.00;;;23.20
12918;BMP180;6526;54.312;13.092;2023-08-01T12:16:41;99791.00;;;23.30
12918;BMP180;6526;54.312;13.092;2023-08-01T12:19:08;99793.00;;;23.30
12918;BMP180;6526;54.312;13.092;2023-08-01T12:21:35;99785.00;;;23.30
12918;BMP180;6526;54.312;13.092;2023-08-01T12:24:01;99785.00;;;23.30
12918;BMP180;6526;54.312;13.092;2023-08-01T12:26:27;99781.00;;;23.30
12918;BMP180;6526;54.312;13.092;2023-08-01T12:28:54;99780.00;;;23.40
12918;BMP180;6526;54.312;13.092;2023-08-01T12:31:21;99776.00;;;23.50
12918;BMP180;6526;54.312;13.092;2023-08-01T12:33:48;99789.00;;;23.70
12918;BMP180;6526;54.312;13.092;2023-08-01T12:36:15;99786.00;;;23.70
12918;BMP180;6526;54.312;13.092;2023-08-01T12:38:41;99780.00;;;23.70
12918;BMP180;6526;54.312;13.092;2023-08-01T12:41:08;99795.00;;;23.60
12918;BMP180;6526;54.312;13.092;2023-08-01T12:43:34;99788.00;;;23.50
12918;BMP180;6526;54.312;13.092;2023-08-01T12:46:00;99793.00;;;23.40
12918;BMP180;6526;54.312;13.092;2023-08-01T12:48:27;99791.00;;;23.30
12918;BMP180;6526;54.312;13.092;2023-08-01T12:50:53;99789.00;;;23.30
12918;BMP180;6526;54.312;13.092;2023-08-01T12:53:20;99809.00;;;23.40
12918;BMP180;6526;54.312;13.092;2023-08-01T12:55:48;99799.00;;;23.60
12918;BMP180;6526;54.312;13.092;2023-08-01T12:58:14;99802.00;;;23.90
12918;BMP180;6526;54.312;13.092;2023-08-01T13:00:42;99797.00;;;24.00
12918;BMP180;6526;54.312;13.092;2023-08-01T13:03:08;99813.00;;;24.10
12918;BMP180;6526;54.312;13.092;2023-08-01T13:05:35;99796.00;;;24.20
12918;BMP180;6526;54.312;13.092;2023-08-01T13:08:02;99798.00;;;24.10
12918;BMP180;6526;54.312;13.092;2023-08-01T13:10:35;99795.00;;;24.00
12918;BMP180;6526;54.312;13.092;2023-08-01T13:13:01;99791.00;;;24.00
12918;BMP180;6526;54.312;13.092;2023-08-01T13:15:28;99788.00;;;24.00
12918;BMP180;6526;54.312;13.092;2023-08-01T13:17:55;99791.00;;;24.00
12918;BMP180;6526;54.312;13.092;2023-08-01T13:20:21;99789.00;;;24.00
12918;BMP180;6526;54.312;13.092;2023-08-01T13:22:50;99786.00;;;23.90
12918;BMP180;6526;54.312;13.092;2023-08-01T13:25:16;99793.00;;;24.00
12918;BMP180;6526;54.312;13.092;2023-08-01T13:27:43;99781.00;;;24.20
12918;BMP180;6526;54.312;13.092;2023-08-01T13:30:09;99785.00;;;24.40
12918;BMP180;6526;54.312;13.092;2023-08-01T13:32:36;99788.00;;;24.50
12918;BMP180;6526;54.312;13.092;2023-08-01T13:35:02;99795.00;;;24.50
12918;BMP180;6526;54.312;13.092;2023-08-01T13:37:28;99800.00;;;24.60
12918;BMP180;6526;54.312;13.092;2023-08-01T13:39:58;99800.00;;;24.70
12918;BMP180;6526;54.312;13.092;2023-08-01T13:42:24;99797.00;;;24.70
12918;BMP180;6526;54.312;13.092;2023-08-01T13:44:50;99803.00;;;24.70
12918;BMP180;6526;54.312;13.092;2023-08-01T13:47:16;99805.00;;;24.70
12918;BMP180;6526;54.312;13.092;2023-08-01T13:49:42;99805.00;;;24.50
12918;BMP180;6526;54.312;13.092;2023-08-01T13:52:08;99826.00;;;24.40
12918;BMP180;6526;54.312;13.092;2023-08-01T13:54:34;99828.00;;;24.30
12918;BMP180;6526;54.312;13.092;2023-08-01T13:57:00;99838.00;;;24.30
12918;BMP180;6526;54.312;13.092;2023-08-01T13:59:26;99826.00;;;24.20
12918;BMP180;6526;54.312;13.092;2023-08-01T14:01:53;99821.00;;;24.10
12918;BMP180;6526;54.312;13.092;2023-08-01T14:04:20;99833.00;;;24.00
12918;BMP180;6526;54.312;13.092;2023-08-01T14:06:46;99859.00;;;23.90